x

New Dungeness - 17 Nm Ne Of Port Angeles, Wa (46088) Wave Buoy

2:50 - Tue 3rd May 2016 All times are PDT. -7 hours from GMT.

  • Sig Wave height 2.0ft
  • Swell Direction
  • Peak Period 3s
  • Average Period 3s
  • Wind
    16mph, 20mph gusts
  • Sea Temp 51°f
  • Aire Temp 58°f
  • Sea Pressure 1013.4mb
  • New Dungeness - 17 Nm Ne Of Port Angeles, Wa
  • New Dungeness - 17 Nm Ne Of Port Angeles, Wa

More Historic Weather Station data

Upgrade to MSW Pro to gain access to the past 30 days of data for over 8000 Wavebouys and Weather Stations around the globe.

Join Pro

Comparision Forecast

View Surf forecast
   
mar 05/03 2:50 2ft 3s 3s 16 20 mph 1013.4mb 51f 58f
2:20 2ft 3s 3s 20 25 mph 1013.3mb 51f 56f
1:50 1.6ft 3s 3s 18 25 mph 1013.8mb 51f 55f
1:20 1.6ft 3s 3s 11 13 mph 1013.7mb 51f 54f
12:50 1.6ft 3s 3s 16 18 mph 1013.3mb 52f 54f
12:20 1.6ft 3s 3s 18 20 mph 1012.9mb 52f 54f
lun 05/02 11:50 1.3ft 3s 3s 16 20 mph 1012.8mb 52f 55f
11:20 1ft 3s 3s 11 16 mph 1013.1mb 52f 55f
10:50 1.3ft 3s 3s 7 9 mph 1013.1mb 52f 56f
10:20 1.3ft 3s 3s 9 11 mph 1012.7mb 52f 56f
9:50 1.3ft 3s 3s 2 4 mph 1012.8mb 53f 56f
9:20 1ft 3s 3s 4 7 mph 1012.6mb 51f 57f
8:50 1ft 3s 3s 11 16 mph 1011.8mb 51f 61f
8:20 0.7ft  -  4s 13 16 mph 1011.5mb 52f 64f
7:50 0.7ft  -  4s 13 18 mph 1011.8mb 52f 58f
7:20 0.7ft  -  4s 16
mph
1011.1mb 53f 61f
6:50 0.3ft  -  4s 11
mph
1011.3mb 52f 62f
6:20 0.3ft  -  4s 9 11 mph 1011.4mb 54f 62f
5:50 0.3ft  -  5s 9 11 mph 1011.3mb 52f 60f
5:20 0.3ft  -  5s 9
mph
1011.6mb 52f 58f
4:50 0.7ft  -  4s 4 7 mph 1011.5mb 53f 59f
4:20 0.7ft  -  3s 9
mph
1011.5mb 53f 62f
3:50 0.7ft  -  3s 7 9 mph 1011.8mb 52f 58f
3:20 0.7ft  -  3s 4 7 mph 1011.8mb 52f 61f
2:50 0.7ft  -  3s 11 13 mph 1011.9mb 51f 57f
2:20 0.7ft  -  3s 16 18 mph 1012.1mb 51f 58f
1:50 0.7ft  -  4s 16 18 mph 1012.4mb 51f 58f
1:20 0.7ft  -  4s 13 16 mph 1012.9mb 51f 58f
12:50 0.7ft  -  4s 13 16 mph 1013.3mb 51f 57f
12:20 0.7ft  -  4s 13 16 mph 1013.5mb 51f 56f
11:50 1ft 7s 4s 16
mph
1013.7mb 51f 56f
11:20 0.7ft  -  5s 16 18 mph 1013.9mb 51f 57f
10:50 0.7ft  -  6s 11 13 mph 1014.2mb 51f 55f
10:20 0.7ft  -  6s 11
mph
1014.3mb 51f 54f
9:50 0.7ft  -  5s 9 11 mph 1014.1mb 51f 54f
9:20 0.7ft  -  5s 11
mph
1014.4mb 51f 54f
8:50 0.3ft  -  6s 11 13 mph 1014.4mb 50f 53f
8:20 0.3ft  -  5s 7 9 mph 1014.5mb 50f 53f
7:50 0.3ft  -  5s 7
mph
1014.4mb 50f 53f
7:20 0.3ft  -  4s 7
mph
1014.4mb 50f 53f
6:50 0.3ft  -  4s 9 11 mph 1014.1mb 50f 53f
6:20 0.3ft  -  4s 9 11 mph 1013.9mb 50f 54f
5:50 0.3ft  -  5s 9 11 mph 1013.8mb 51f 53f
5:20 0.3ft  -  5s 7 9 mph 1013.8mb 50f 53f
4:50 0.3ft  -  5s 7
mph
1013.8mb 51f 53f
4:20 0.3ft  -  5s 4
mph
1013.6mb 51f 54f
3:50 0.3ft  -  5s 4
mph
1013.7mb 51f 54f
3:20 0.3ft  -  5s 2 4 mph 1013.5mb 51f 54f
2:50 0.3ft  -  6s 2 4 mph 1013.4mb 51f 54f
2:20 0.3ft  -  6s 9
mph
1013.3mb 51f 54f
1:50 0.3ft  -  4s 9
mph
1013.4mb 51f 54f
1:20 0.3ft  -  5s 4 7 mph 1013.4mb 51f 54f
12:50 0.3ft  -  5s 4 7 mph 1013.4mb 51f 55f
12:20 0.7ft  -  6s 9 11 mph 1013.3mb 51f 56f
dom 05/01 11:50 0.3ft  -  5s 2
mph
1013.6mb 51f 55f
11:20 0.7ft  -  5s 4 7 mph 1013.6mb 51f 57f
10:50 0.7ft  -  5s 4
mph
1013.6mb 52f 59f
10:20 0.7ft  -  5s 2 4 mph 1013.6mb 52f 58f
9:50 0.7ft  -  6s 2 4 mph 1013.6mb 52f 61f
9:20 0.7ft  -  5s 2
mph
1013.6mb 52f 57f
8:50 0.7ft  -  6s 4 7 mph 1013.4mb 52f 60f
8:20 0.7ft  -  5s 2 4 mph 1013.4mb 53f 57f
7:50 0.7ft  -  6s 4 7 mph 1013.4mb 52f 56f
7:20 0.7ft  -  5s 4 7 mph 1013.4mb 53f 59f
6:50 0.3ft  -  6s 2 4 mph 1013.8mb 52f 60f
6:20 0.3ft  -  5s 4 7 mph 1014.2mb 52f 57f
5:50 0.3ft  -  5s 13 16 mph 1014.2mb 54f 59f
5:20 0.3ft  -  4s 11 13 mph 1015mb 53f 59f
4:50 0.7ft  -  4s 11 13 mph 1015.5mb 53f 58f
4:20 0.7ft  -  5s 11
mph
1016mb 54f 58f
3:50 0.7ft  -  5s 7 9 mph 1016.6mb 54f 57f
3:20 0.7ft  -  5s 7 9 mph 1017mb 58f 58f
2:50 0.7ft  -  4s 4
mph
1017.6mb 55f 57f
2:20 0.7ft  -  4s 2
mph
1018.2mb 53f 57f
1:50 0.7ft  -  5s 2 4 mph 1018.5mb 54f 56f
1:20 0.7ft  -  5s 4
mph
1019.1mb 55f 55f
12:50 0.7ft  -  5s 2 4 mph 1019.7mb 55f 54f
12:20 0.7ft  -  5s 4 7 mph 1020.2mb 53f 54f
11:50 0.7ft  -  4s 2
mph
1020.7mb 53f 54f
11:20 1ft 5s 5s  -  2 mph 1021.1mb 52f 53f
10:50 1ft 5s 5s 2
mph
1021.4mb 52f 53f
10:20 1ft 6s 5s  -  mph 1022mb 51f 53f
9:50 1ft 7s 5s 4
mph
1022.3mb 51f 52f
9:20 0.7ft  -  6s 4
mph
1022.7mb 51f 51f
8:50 0.7ft  -  6s 4 7 mph 1023mb 50f 51f
8:20 0.7ft  -  5s 7 9 mph 1023.1mb 50f 51f
7:50 0.3ft  -  4s 7
mph
1023.3mb 50f 51f
7:20 0.3ft  -  4s 4 7 mph 1023.4mb 50f 51f
6:50 0.3ft  -  5s 4 7 mph 1023.5mb 50f 51f
6:20 0.3ft  -  4s 4
mph
1023.6mb 50f 50f
5:50 0.3ft  -  4s  -  2 mph 1023.8mb 50f 50f
5:20 0.3ft  -  4s 2
mph
1023.9mb 50f 50f
4:50 0.3ft  -  4s  -  2 mph 1023.9mb 51f 50f
4:20 0.7ft  -  3s 2 4 mph 1024.3mb 51f 51f
3:50 0.7ft  -  3s 2
mph
1024.3mb 51f 51f
3:20 0.7ft  -  3s 4
mph
1024.4mb 51f 51f
2:50 0.7ft  -  3s 4
mph
1024.5mb 51f 51f
2:20 1ft 3s 3s 7 9 mph 1024.6mb 50f 51f
1:50 1ft 3s 3s 9 11 mph 1024.9mb 51f 52f
1:20 1ft 3s 3s 11 13 mph 1025.1mb 51f 51f
12:50 1.3ft 3s 3s 9 11 mph 1025.3mb 51f 52f
12:20 1.3ft 3s 3s 11 13 mph 1025.2mb 51f 51f
sáb 04/30 11:50 1.6ft 3s 3s 13 16 mph 1025.2mb 50f 51f
11:20 2ft 3s 3s 16 18 mph 1025.4mb 50f 51f
10:50 2ft 3s 3s 16 20 mph 1025.5mb 50f 51f
10:20 2ft 3s 3s 20 22 mph 1025.5mb 50f 52f
9:50 2ft 3s 3s 18 20 mph 1025.7mb 50f 52f
9:20 2ft 4s 4s 16 18 mph 1025.8mb 50f 52f
8:50 2ft 3s 4s 16 18 mph 1025.6mb 50f 52f
8:20 1.6ft 7s 4s 18 20 mph 1025.5mb 50f 52f
7:50 1.3ft 7s 4s 18 20 mph 1025.5mb 51f 53f
7:20 1ft 9s 5s 13 16 mph 1025.7mb 51f 53f
6:50 1ft 8s 6s 11 13 mph 1025.9mb 51f 53f
6:20 1ft 7s 5s 7 9 mph 1026.1mb 52f 54f
5:50 1ft 8s 6s 9
mph
1026.3mb 52f 54f
5:20 1ft 11s 7s 9 11 mph 1026.4mb 53f 54f
4:50 0.7ft  -  5s 9
mph
1026.7mb 53f 54f
3:50 0.7ft  -  4s 7
mph
1027.1mb 55f 54f
3:20 0.7ft  -  4s 7
mph
1027.3mb 54f 54f
2:50 0.7ft  -  4s 7
mph
1027.4mb 53f 54f
2:20 0.7ft  -  4s 7
mph
1027.5mb 54f 54f
1:50 0.7ft  -  5s 4
mph
1027.7mb 55f 54f
1:20 0.7ft  -  5s 2 4 mph 1027.9mb 55f 54f
12:50 1ft 7s 5s 2
mph
1028.2mb 54f 54f
12:20 1ft 8s 5s  -  mph 1028.2mb 54f 54f
11:50 1ft 8s 5s  -  2 mph 1028.2mb 52f 53f
11:20 1ft 8s 5s 2 4 mph 1028.2mb 52f 54f
10:50 1ft 7s 5s  -  2 mph 1028.3mb 52f 52f
10:20 0.7ft  -  4s  -  2 mph 1028.2mb 51f 51f
9:50 1ft 8s 4s 2 4 mph 1028.2mb 51f 50f
9:20 1ft 9s 4s  -  2 mph 1028.3mb 51f 50f
8:50 1ft 8s 4s 2 4 mph 1028.1mb 50f 50f
8:20 1ft 9s 5s 4
mph
1028mb 50f 50f
7:50 1ft 9s 5s 2
mph
1027.8mb 50f 49f
7:20 1ft 9s 4s 2 4 mph 1027.4mb 50f 50f
6:20 1ft 4s 4s 2
mph
1026.8mb 50f 49f
5:50 1ft 4s 4s  -  2 mph 1026.4mb 49f 49f
5:20 1ft 4s 4s 4 7 mph 1026.2mb 50f 50f
4:50 1ft 4s 4s 7 9 mph 1025.9mb 50f 50f
4:20 1ft 4s 4s 7 9 mph 1025.6mb 50f 50f
3:50 1ft 4s 4s 9 11 mph 1025.3mb 50f 50f
3:20 1.3ft 3s 3s 11 13 mph 1025mb 50f 50f
2:50 1.3ft 3s 3s 11 13 mph 1024.6mb 50f 51f
2:20 1.6ft 3s 3s 13 18 mph 1024.2mb 50f 51f
1:50 1.6ft 4s 3s 13 18 mph 1023.9mb 50f 51f
1:20 2ft 3s 3s 16 18 mph 1023.7mb 50f 51f
12:50 2ft 3s 3s 20 22 mph 1023.3mb 50f 51f
12:20 2.5ft 3s 3s 20 25 mph 1023.1mb 50f 51f
vie 04/29 11:50 2.5ft 3s 3s 20 25 mph 1022.8mb 50f 51f
11:20 2.5ft 3s 3s 20 22 mph 1022.7mb 50f 51f
10:50 2.5ft 4s 4s 20 27 mph 1022.4mb 50f 51f
10:20 3ft 4s 4s 20 25 mph 1022.3mb 50f 52f
9:50 3.5ft 4s 4s 20 25 mph 1021.9mb 50f 52f
9:20 3.5ft 4s 4s 22 29 mph 1021.4mb 50f 52f
8:50 3.5ft 4s 4s 20 25 mph 1020.9mb 50f 53f
8:20 3.5ft 4s 4s 20 25 mph 1020.6mb 50f 53f
7:50 3.5ft 4s 4s 22 31 mph 1020.3mb 50f 54f
7:20 3.5ft 4s 4s 20 22 mph 1020mb 50f 54f
6:50 4ft 5s 4s 25 31 mph 1019.7mb 51f 55f
6:20 4.5ft 6s 4s 22 27 mph 1019.7mb 51f 54f
5:50 3.5ft 5s 4s 22 27 mph 1019.5mb 51f 55f
5:20 2.5ft 5s 4s 22 25 mph 1019.4mb 51f 55f
4:50 2ft 5s 4s 16 18 mph 1019.4mb 51f 54f
3:50 1.6ft 5s 4s 13 16 mph 1019.4mb 51f 54f
3:20 1.3ft 5s 4s 11 13 mph 1019.6mb 51f 53f
2:50 1.3ft 5s 4s 7 9 mph 1019.6mb 51f 53f
2:20 1.6ft 5s 4s 7 9 mph 1019.5mb 51f 53f
1:50 1.3ft 4s 4s 9 11 mph 1019.3mb 50f 52f
1:20 1.3ft 4s 4s 9 11 mph 1019.3mb 50f 52f
12:50 1.6ft 4s 4s 13 18 mph 1019.3mb 50f 52f
12:20 2ft 4s 4s 16 18 mph 1019.2mb 50f 51f
11:50 2ft 4s 4s 18 20 mph 1019.2mb 50f 51f
11:20 2ft 4s 4s 18 20 mph 1019.2mb 50f 51f
10:50 2ft 4s 4s 18 22 mph 1019mb 50f 51f